NCAR-RAP Real-Time Weather Data

Output produced by METARs form (17 December 2018  08:00 UTC)
found at http://weather.rap.ucar.edu/surface/
 
ROMY 170700Z 36010KT 330V030 9999 FEW034 19/10 Q1020
ROMY 170600Z 36013KT 9999 SCT036 BKN110 20/11 Q1020
ROMY 170500Z 01012KT 330V040 9999 FEW034 BKN090 19/11 Q1020
ROMY 170400Z 36010G20KT 330V030 9999 SCT032 OVC080 19/11 Q1020
ROMY 170300Z 36011KT 330V030 9999 FEW032 OVC080 19/11 Q1021
ROMY 170200Z 36012KT 330V040 9999 VCSH FEW030 BKN080 19/11 Q1021
ROMY 170100Z 36010KT 9999 VCSH SCT028 BKN060 19/12 Q1022
ROMY 170000Z 36010KT 9999 -SHRA FEW020 BKN030 BKN050 17/14 Q1021
ROMY 162327Z 36009KT 7000 -SHRA FEW020 BKN028 BKN050 16/14 Q1020 RMK 2CU020 5CU028 7SC050 A3014
ROMY 162313Z 36010KT 4000 -SHRA BR FEW018 BKN026 BKN050 16/15 Q1020 RMK 2CU018 5CU026 7SC050 A3014
ROMY 162300Z 36010KT 5000 -SHRA BR FEW015 BKN025 BKN050 17/14 Q1020
ROMY 162200Z 35013KT 320V030 9999 SCT026 BKN050 18/13 Q1019
ROMY 162130Z 36012KT 310V030 9999 FEW025 BKN050 18/13 Q1019
ROMY 161137Z 35012KT 3000 +SHRA BR FEW004 SCT010 BKN025 21/20 Q1018 RMK 2ST004 3CU010 6CU025 A3007 RI++
ROMY 161100Z 23005KT 9999 VCSH FEW025 BKN040 BKN070 22/18 Q1017
ROMY 161000Z 22006KT 9999 FEW025 SCT050 BKN080 22/18 Q1017
ROMY 160900Z 21006KT 9999 FEW030 BKN080 22/18 Q1017
ROMY 160800Z 22009KT 9999 FEW030 BKN080 23/17 Q1017
ROMY 160700Z 22008KT 190V250 9999 SCT030 BKN080 24/17 Q1017
ROMY 160600Z 20009KT 150V230 9999 FEW030 BKN080 24/17 Q1017
ROMY 160500Z 17010KT 9999 FEW030 BKN080 24/17 Q1018
ROMY 160400Z 17008KT 130V210 9999 FEW035 BKN080 24/16 Q1019
ROMY 160300Z 15008KT 120V180 9999 FEW035 SCT050 BKN080 24/16 Q1020
ROMY 160200Z 13007KT 110V180 9999 FEW033 BKN050 24/16 Q1021
ROMY 160100Z 11004KT 080V150 9999 FEW030 BKN050 23/17 Q1021
ROMY 160000Z 11004KT 360V130 9999 FEW030 BKN050 21/16 Q1021
ROMY 151100Z 07008KT 9999 FEW030 20/14 Q1023
ROMY 151000Z 06009KT 9999 FEW032 19/14 Q1023
ROMY 150900Z 06010KT 9999 SCT032 20/14 Q1022
ROMY 150800Z 07011KT 9999 SCT032 21/14 Q1022
ROMY 150700Z 07011KT 9999 SCT030 22/14 Q1021
ROMY 150600Z 07011KT 040V110 9999 SCT030 23/15 Q1022
ROMY 150500Z 07013KT 9999 SCT030 23/15 Q1022
ROMY 150400Z 07014KT 9999 SCT028 23/15 Q1023
ROMY 150300Z 06014KT 9999 SCT038 22/14 Q1025
ROMY 150200Z 05015KT 9999 SCT033 22/15 Q1025
ROMY 150100Z 05012KT 9999 FEW033 BKN080 21/14 Q1025
ROMY 150000Z 05013G23KT 9999 FEW034 BKN070 20/14 Q1025
ROMY 142300Z 04015KT 9999 SCT032 BKN070 20/14 Q1025
ROMY 142200Z 05013KT 9999 FEW030 SCT040 BKN070 20/14 Q1025
ROMY 142130Z 04014KT 9999 SCT027 SCT040 BKN070 20/14 Q1024